createdAt,value
2019-01-05T00:02:45.737Z,2.7
2019-01-05T00:07:45.796Z,2.7
2019-01-05T00:12:27.986Z,2.7
2019-01-05T00:17:27.557Z,2.7
2019-01-05T00:22:28.119Z,2.8
2019-01-05T00:27:27.948Z,2.8
2019-01-05T00:32:28.047Z,2.8
2019-01-05T00:37:28.560Z,2.8
2019-01-05T00:42:28.780Z,2.8
2019-01-05T00:47:28.475Z,2.8
2019-01-05T00:52:27.817Z,2.8
2019-01-05T00:57:27.027Z,2.8
2019-01-05T01:02:27.377Z,2.8
2019-01-05T01:07:28.212Z,2.8
2019-01-05T01:12:26.993Z,2.9
2019-01-05T01:17:28.097Z,2.8
2019-01-05T01:22:27.828Z,2.8
2019-01-05T01:27:27.270Z,2.9
2019-01-05T01:32:27.710Z,2.9
2019-01-05T01:37:28.601Z,3.0
2019-01-05T01:42:28.116Z,3.0
2019-01-05T01:47:28.023Z,3.1
2019-01-05T01:52:27.772Z,3.1
2019-01-05T01:57:27.502Z,3.2
2019-01-05T02:02:28.196Z,3.3
2019-01-05T02:07:27.968Z,3.3
2019-01-05T02:12:27.625Z,3.3
2019-01-05T02:17:27.841Z,3.3
2019-01-05T02:22:28.159Z,3.3
2019-01-05T02:27:28.309Z,3.3
2019-01-05T02:32:28.256Z,3.3
2019-01-05T02:37:28.093Z,3.3
2019-01-05T02:42:28.492Z,3.3
2019-01-05T02:47:28.482Z,3.4
2019-01-05T02:52:28.126Z,3.3
2019-01-05T02:57:27.602Z,3.3
2019-01-05T03:02:27.448Z,3.4
2019-01-05T03:07:28.745Z,3.4
2019-01-05T03:12:27.624Z,3.4
2019-01-05T03:17:28.849Z,3.3
2019-01-05T03:22:27.608Z,3.3
2019-01-05T03:27:28.130Z,3.3
2019-01-05T03:32:28.964Z,3.4
2019-01-05T03:37:28.136Z,3.3
2019-01-05T03:42:28.173Z,3.2
2019-01-05T03:47:27.448Z,3.3
2019-01-05T03:52:28.140Z,3.3
2019-01-05T03:57:28.060Z,3.2
2019-01-05T04:02:28.442Z,3.3
2019-01-05T04:07:28.149Z,3.3
2019-01-05T04:12:27.583Z,3.3
2019-01-05T04:17:28.148Z,3.3
2019-01-05T04:22:28.417Z,3.3
2019-01-05T04:27:28.567Z,3.3
2019-01-05T04:32:27.760Z,3.2
2019-01-05T04:37:28.497Z,3.2
2019-01-05T04:42:28.397Z,3.2
2019-01-05T04:47:28.151Z,3.1
2019-01-05T04:52:29.331Z,3.1
2019-01-05T04:57:27.982Z,3.1
2019-01-05T05:02:28.322Z,3.1
2019-01-05T05:07:29.015Z,3.1
2019-01-05T05:12:27.666Z,3.0
2019-01-05T05:17:28.098Z,3.0
2019-01-05T05:22:28.358Z,3.0
2019-01-05T05:27:29.236Z,3.0
2019-01-05T05:32:28.521Z,2.9
2019-01-05T05:37:28.168Z,2.9
2019-01-05T05:42:28.376Z,2.9
2019-01-05T05:47:29.605Z,2.9
2019-01-05T05:52:27.145Z,2.8
2019-01-05T05:57:28.109Z,2.8
2019-01-05T06:02:27.438Z,2.7
2019-01-05T06:07:27.244Z,2.7
2019-01-05T06:12:27.549Z,2.7
2019-01-05T06:17:28.514Z,2.7
2019-01-05T06:22:27.372Z,2.7
2019-01-05T06:27:28.436Z,2.7
2019-01-05T06:32:27.508Z,2.7
2019-01-05T06:37:27.287Z,2.7
2019-01-05T06:42:27.997Z,2.8
2019-01-05T06:47:28.835Z,2.8
2019-01-05T06:52:28.461Z,2.8
2019-01-05T06:57:27.858Z,2.8
2019-01-05T07:02:28.791Z,2.8
2019-01-05T07:07:28.044Z,2.8
2019-01-05T07:12:28.028Z,2.8
2019-01-05T07:17:28.914Z,2.8
2019-01-05T07:22:28.198Z,2.8
2019-01-05T07:27:27.770Z,2.8
2019-01-05T07:32:28.952Z,2.8
2019-01-05T07:37:28.810Z,2.8
2019-01-05T07:42:28.533Z,2.9
2019-01-05T07:47:28.048Z,2.9
2019-01-05T07:52:28.580Z,2.9
2019-01-05T07:57:29.340Z,3.0
2019-01-05T08:02:29.427Z,2.9
2019-01-05T08:07:27.750Z,3.0
2019-01-05T08:12:28.498Z,3.1
2019-01-05T08:17:28.758Z,3.1
2019-01-05T08:22:28.605Z,3.2
2019-01-05T08:27:28.393Z,3.2
2019-01-05T08:32:29.588Z,3.4
2019-01-05T08:37:28.184Z,3.3
2019-01-05T08:42:28.151Z,3.5
2019-01-05T08:47:29.255Z,3.5
2019-01-05T08:52:28.746Z,3.5
2019-01-05T08:57:29.192Z,3.5
2019-01-05T09:02:27.846Z,3.5
2019-01-05T09:07:28.645Z,3.6
2019-01-05T09:12:28.445Z,3.5
2019-01-05T09:17:29.377Z,3.5
2019-01-05T09:22:28.173Z,3.5
2019-01-05T09:27:29.163Z,3.5
2019-01-05T09:32:28.564Z,3.5
2019-01-05T09:37:28.852Z,3.4
2019-01-05T09:42:27.941Z,3.5
2019-01-05T09:47:28.835Z,3.6
2019-01-05T09:52:28.868Z,3.6
2019-01-05T09:57:27.929Z,3.5
2019-01-05T10:02:28.211Z,3.5
2019-01-05T10:07:29.418Z,3.4
2019-01-05T10:12:28.004Z,3.3
2019-01-05T10:17:29.568Z,3.3
2019-01-05T10:22:28.824Z,3.3
2019-01-05T10:27:28.396Z,3.2
2019-01-05T10:32:28.078Z,3.2
2019-01-05T10:37:28.321Z,3.2
2019-01-05T10:42:28.530Z,3.3
2019-01-05T10:47:28.724Z,3.3
2019-01-05T10:52:27.891Z,3.4
2019-01-05T10:57:29.309Z,3.4
2019-01-05T11:02:28.348Z,3.5
2019-01-05T11:07:27.803Z,3.5
2019-01-05T11:12:28.360Z,3.6
2019-01-05T11:17:28.658Z,3.7
2019-01-05T11:22:27.670Z,3.7
2019-01-05T11:27:29.338Z,3.8
2019-01-05T11:32:29.007Z,3.9
2019-01-05T11:37:28.379Z,4.0
2019-01-05T11:42:28.627Z,4.1
2019-01-05T11:47:28.587Z,4.3
2019-01-05T11:52:27.707Z,4.4
2019-01-05T11:57:29.176Z,4.3
2019-01-05T12:02:28.894Z,4.5
2019-01-05T12:07:27.759Z,4.6
2019-01-05T12:12:29.895Z,4.7
2019-01-05T12:17:28.712Z,4.7
2019-01-05T12:22:28.613Z,4.8
2019-01-05T12:27:28.764Z,4.8
2019-01-05T12:32:28.132Z,4.8
2019-01-05T12:37:28.563Z,4.8
2019-01-05T12:42:27.689Z,4.9
2019-01-05T12:47:28.737Z,4.8
2019-01-05T12:52:28.089Z,4.9
2019-01-05T12:57:28.268Z,4.8
2019-01-05T13:02:29.226Z,4.8
2019-01-05T13:07:28.516Z,4.9
2019-01-05T13:12:27.648Z,5.0
2019-01-05T13:17:28.273Z,5.0
2019-01-05T13:22:28.792Z,5.0
2019-01-05T13:27:28.915Z,5.1
2019-01-05T13:32:28.673Z,5.1
2019-01-05T13:37:28.595Z,5.1
2019-01-05T13:42:33.772Z,5.1
2019-01-05T13:47:29.125Z,5.2
2019-01-05T13:52:29.991Z,5.1
2019-01-05T13:57:28.434Z,5.1
2019-01-05T14:02:29.211Z,5.2
2019-01-05T14:07:28.713Z,5.2
2019-01-05T14:12:28.279Z,5.2
2019-01-05T14:17:29.109Z,5.2
2019-01-05T14:22:27.771Z,5.2
2019-01-05T14:27:28.422Z,5.3
2019-01-05T14:32:28.724Z,5.4
2019-01-05T14:37:28.856Z,5.4
2019-01-05T14:42:28.570Z,5.3
2019-01-05T14:47:28.388Z,5.2
2019-01-05T14:52:27.804Z,5.2
2019-01-05T14:57:28.892Z,5.2
2019-01-05T15:02:28.322Z,5.2
2019-01-05T15:07:28.205Z,5.1
2019-01-05T15:12:28.690Z,5.1
2019-01-05T15:17:29.350Z,5.0
2019-01-05T15:22:29.124Z,5.0
2019-01-05T15:27:28.558Z,5.0
2019-01-05T15:32:28.919Z,5.0
2019-01-05T15:37:28.997Z,4.9
2019-01-05T15:42:28.241Z,4.9
2019-01-05T15:47:28.657Z,5.0
2019-01-05T15:52:27.877Z,4.9
2019-01-05T15:57:28.496Z,5.0
2019-01-05T16:02:28.166Z,4.9
2019-01-05T16:07:28.020Z,4.9
2019-01-05T16:12:28.297Z,4.9
2019-01-05T16:17:28.247Z,4.8
2019-01-05T16:22:27.920Z,4.6
2019-01-05T16:27:27.823Z,4.6
2019-01-05T16:32:28.233Z,4.6
2019-01-05T16:37:27.753Z,4.6
2019-01-05T16:42:27.978Z,4.7
2019-01-05T16:47:28.328Z,4.7
2019-01-05T16:52:27.998Z,4.7
2019-01-05T16:57:29.343Z,4.7
2019-01-05T17:02:28.019Z,4.6
2019-01-05T17:07:27.889Z,4.6
2019-01-05T17:12:29.291Z,4.7
2019-01-05T17:17:28.346Z,4.7
2019-01-05T17:22:28.320Z,4.7
2019-01-05T17:27:28.513Z,4.8
2019-01-05T17:32:28.356Z,4.8
2019-01-05T17:37:28.527Z,4.8
2019-01-05T17:42:27.360Z,4.8
2019-01-05T17:47:29.125Z,4.8
2019-01-05T17:52:27.850Z,4.8
2019-01-05T17:57:27.769Z,4.9
2019-01-05T18:02:28.423Z,4.9
2019-01-05T18:07:28.713Z,4.9
2019-01-05T18:12:28.001Z,4.9
2019-01-05T18:17:28.489Z,4.9
2019-01-05T18:22:29.403Z,4.9
2019-01-05T18:27:27.893Z,4.8
2019-01-05T18:32:28.965Z,4.8
2019-01-05T18:37:28.056Z,4.7
2019-01-05T18:42:28.376Z,4.7
2019-01-05T18:47:28.282Z,4.7
2019-01-05T18:52:27.526Z,4.7
2019-01-05T18:57:27.401Z,4.8
2019-01-05T19:02:28.166Z,4.8
2019-01-05T19:07:27.808Z,4.9
2019-01-05T19:12:28.461Z,4.9
2019-01-05T19:17:28.096Z,4.9
2019-01-05T19:22:27.947Z,4.9
2019-01-05T19:27:28.483Z,4.9
2019-01-05T19:32:27.712Z,4.9
2019-01-05T19:37:28.210Z,4.9
2019-01-05T19:42:28.806Z,5.0
2019-01-05T19:47:28.542Z,4.9
2019-01-05T19:52:27.343Z,5.0
2019-01-05T19:57:28.683Z,4.9
2019-01-05T20:02:28.663Z,5.0
2019-01-05T20:07:27.944Z,5.1
2019-01-05T20:12:28.907Z,5.1
2019-01-05T20:17:28.457Z,5.2
2019-01-05T20:22:27.922Z,5.2
2019-01-05T20:27:27.716Z,5.3
2019-01-05T20:32:27.606Z,5.3
2019-01-05T20:37:27.581Z,5.3
2019-01-05T20:42:27.946Z,5.3
2019-01-05T20:47:29.588Z,5.3
2019-01-05T20:52:27.777Z,5.3
2019-01-05T20:57:27.691Z,5.2
2019-01-05T21:02:26.916Z,5.2
2019-01-05T21:07:28.798Z,5.1
2019-01-05T21:12:28.082Z,5.1
2019-01-05T21:17:28.101Z,5.0
2019-01-05T21:22:29.029Z,5.0
2019-01-05T21:27:28.335Z,5.0
2019-01-05T21:32:27.890Z,5.0
2019-01-05T21:37:27.598Z,5.0
2019-01-05T21:42:28.256Z,5.0
2019-01-05T21:47:27.965Z,4.9
2019-01-05T21:52:27.536Z,4.9
2019-01-05T21:57:27.329Z,4.9
2019-01-05T22:02:28.691Z,4.9
2019-01-05T22:07:28.056Z,4.8
2019-01-05T22:12:27.651Z,4.8
2019-01-05T22:17:27.945Z,4.9
2019-01-05T22:22:27.845Z,4.9
2019-01-05T22:27:27.940Z,4.9
2019-01-05T22:32:27.408Z,4.9
2019-01-05T22:37:28.407Z,4.9
2019-01-05T22:42:27.421Z,4.9
2019-01-05T22:47:28.850Z,4.9
2019-01-05T22:52:27.580Z,4.9
2019-01-05T22:57:27.613Z,5.0
2019-01-05T23:02:27.810Z,5.1
2019-01-05T23:07:27.718Z,5.0
2019-01-05T23:12:28.694Z,5.1
2019-01-05T23:22:45.216Z,5.0
2019-01-05T23:27:44.276Z,4.9
2019-01-05T23:32:43.763Z,4.9
2019-01-05T23:37:44.205Z,4.9
2019-01-05T23:42:43.919Z,4.9
2019-01-05T23:47:43.901Z,5.0
2019-01-05T23:52:43.201Z,5.2
2019-01-05T23:57:44.050Z,5.1
